Time;durP1;ratioP1;P1;durP2;ratioP2;P2;SDS_P1;SDS_P2;PMS_P1;PMS_P2;Temp;Humidity;BMP_temperature;BMP_pressure;BME280_temperature;BME280_humidity;BME280_pressure;Samples;Min_cycle;Max_cycle;Signal;HPM_P1;HPM_P2
2022/11/30 00:01:17;;;;;;;91.25;83.67;;;;;;;0.35;83.10;101467.21;1679392;85;25599;-72
2022/11/30 00:03:45;;;;;;;87.78;79.95;;;;;;;0.38;83.08;101469.17;1678990;85;25640;-72
2022/11/30 00:06:15;;;;;;;91.17;83.25;;;;;;;0.39;83.17;101476.11;1679219;85;25657;-73
2022/11/30 00:08:42;;;;;;;90.38;82.70;;;;;;;0.40;83.22;101476.42;1678057;85;28154;-74
2022/11/30 00:11:13;;;;;;;94.77;86.15;;;;;;;0.41;83.22;101472.71;1678064;85;25760;-73
2022/11/30 00:13:40;;;;;;;91.20;83.07;;;;;;;0.42;83.24;101473.84;1678027;85;26021;-72
2022/11/30 00:16:07;;;;;;;91.45;83.22;;;;;;;0.43;83.35;101470.16;1678069;84;25807;-72
2022/11/30 00:18:34;;;;;;;88.37;80.43;;;;;;;0.45;83.17;101477.41;1679290;85;25471;-72
2022/11/30 00:21:04;;;;;;;94.25;85.85;;;;;;;0.44;83.10;101470.44;1679379;85;27563;-72
2022/11/30 00:23:35;;;;;;;92.55;84.13;;;;;;;0.46;83.19;101471.56;1679459;85;25649;-72
2022/11/30 00:26:04;;;;;;;87.05;79.47;;;;;;;0.46;83.11;101467.57;1679393;85;25651;-73
2022/11/30 00:28:32;;;;;;;92.75;84.72;;;;;;;0.46;83.21;101472.41;1679449;85;25721;-73
2022/11/30 00:31:01;;;;;;;94.52;86.15;;;;;;;0.49;83.24;101469.81;1679535;85;25545;-72
2022/11/30 00:33:28;;;;;;;94.20;85.32;;;;;;;0.50;83.23;101474.92;1679487;85;28057;-72
2022/11/30 00:36:00;;;;;;;92.00;83.33;;;;;;;0.51;83.28;101471.25;1679420;85;25617;-71
2022/11/30 00:38:27;;;;;;;92.88;85.00;;;;;;;0.51;83.25;101474.41;1679458;85;25613;-72
2022/11/30 00:40:53;;;;;;;91.80;83.75;;;;;;;0.54;83.20;101479.31;1679453;85;25832;-72
2022/11/30 00:43:20;;;;;;;91.92;83.65;;;;;;;0.55;83.17;101475.11;1679579;84;25664;-74
2022/11/30 00:45:46;;;;;;;92.40;83.72;;;;;;;0.57;83.25;101474.09;1672423;85;27334;-75
2022/11/30 00:48:12;;;;;;;91.17;83.22;;;;;;;0.56;82.97;101478.58;1668011;86;25671;-75
2022/11/30 00:50:38;;;;;;;94.07;85.67;;;;;;;0.55;82.96;101474.30;1634564;87;25477;-75
2022/11/30 00:53:04;;;;;;;94.03;85.38;;;;;;;0.55;83.02;101479.62;1667989;86;25637;-75
2022/11/30 00:55:32;;;;;;;99.13;90.03;;;;;;;0.55;82.98;101478.30;1634582;87;25421;-75
2022/11/30 00:57:59;;;;;;;91.05;82.80;;;;;;;0.55;82.93;101479.62;1668073;85;27321;-75
2022/11/30 01:00:27;;;;;;;93.20;84.03;;;;;;;0.53;82.88;101473.70;1667918;86;25469;-75
2022/11/30 01:02:58;;;;;;;87.53;79.47;;;;;;;0.52;83.00;101473.39;1634585;87;25731;-75
2022/11/30 01:05:25;;;;;;;91.73;83.83;;;;;;;0.53;83.17;101473.70;1668037;85;25726;-75
2022/11/30 01:07:52;;;;;;;92.20;83.40;;;;;;;0.53;83.21;101472.38;1634598;87;25675;-75
2022/11/30 01:10:18;;;;;;;88.70;81.23;;;;;;;0.53;82.97;101475.03;1668014;85;27563;-76
2022/11/30 01:12:44;;;;;;;87.77;79.90;;;;;;;0.52;82.79;101474.72;1667940;85;25695;-75
2022/11/30 01:15:10;;;;;;;94.70;85.92;;;;;;;0.50;82.87;101476.26;1668034;86;25577;-75
2022/11/30 01:17:37;;;;;;;88.53;80.63;;;;;;;0.50;82.96;101474.92;1668007;85;25688;-75
2022/11/30 01:20:07;;;;;;;90.90;82.67;;;;;;;0.51;83.03;101475.24;1668017;85;25607;-75
2022/11/30 01:22:34;;;;;;;91.30;82.87;;;;;;;0.52;83.15;101476.05;1634572;87;27530;-74
2022/11/30 01:25:00;;;;;;;91.10;83.00;;;;;;;0.53;83.04;101479.03;1667950;85;25468;-74
2022/11/30 01:27:27;;;;;;;91.07;82.63;;;;;;;0.53;82.92;101480.36;1634539;87;25656;-74
2022/11/30 01:29:53;;;;;;;88.23;79.80;;;;;;;0.51;82.86;101481.06;1667995;85;25670;-74
2022/11/30 01:32:19;;;;;;;88.83;80.77;;;;;;;0.50;82.85;101478.92;1634603;87;25609;-74
2022/11/30 01:34:46;;;;;;;84.77;77.27;;;;;;;0.50;82.90;101479.45;1668280;85;27443;-74
2022/11/30 01:37:12;;;;;;;90.47;81.97;;;;;;;0.50;82.86;101480.78;1635306;87;25780;-74
2022/11/30 01:39:38;;;;;;;92.88;84.72;;;;;;;0.49;82.90;101479.13;1668758;85;25652;-73
2022/11/30 01:42:15;;;;;;;92.62;84.35;;;;;;;0.49;82.83;101488.45;1634717;87;25633;-73
2022/11/30 01:44:58;;;;;;;89.10;81.22;;;;;;;0.49;82.92;101489.78;1667937;85;25600;-74
2022/11/30 01:47:36;;;;;;;89.35;81.17;;;;;;;0.49;82.96;101487.92;1666787;86;28072;-73
2022/11/30 01:50:13;;;;;;;93.90;84.90;;;;;;;0.49;82.90;101489.78;1679405;85;25574;-73
2022/11/30 01:52:48;;;;;;;92.50;83.90;;;;;;;0.49;83.06;101484.45;1679447;85;25602;-74
2022/11/30 01:55:31;;;;;;;94.05;85.38;;;;;;;0.51;83.12;101486.38;1679445;85;25658;-74
2022/11/30 01:58:17;;;;;;;90.30;82.33;;;;;;;0.50;82.95;101489.57;1679538;84;25596;-74
2022/11/30 02:00:46;;;;;;;92.75;84.37;;;;;;;0.51;82.88;101487.72;1679438;85;27346;-73
2022/11/30 02:03:24;;;;;;;61.48;55.73;;;;;;;0.51;82.83;101493.04;1679534;85;25431;-74
2022/11/30 02:05:50;;;;;;;89.85;81.78;;;;;;;0.50;82.68;101488.77;1659692;85;25804;-74
2022/11/30 02:08:18;;;;;;;92.55;83.78;;;;;;;0.48;82.60;101496.16;1679455;85;25637;-74
2022/11/30 02:10:50;;;;;;;88.67;80.77;;;;;;;0.46;82.67;101499.52;1679477;85;25624;-74
2022/11/30 02:13:41;;;;;;;90.63;82.27;;;;;;;0.46;82.74;101493.70;1679555;85;27527;-72
2022/11/30 02:16:25;;;;;;;93.50;84.77;;;;;;;0.47;82.81;101491.84;1679378;85;25508;-72
2022/11/30 02:19:27;;;;;;;95.55;87.05;;;;;;;0.48;82.96;101492.16;1679265;85;25429;-73
2022/11/30 02:22:25;;;;;;;90.10;82.17;;;;;;;0.49;82.89;101492.44;1679455;85;26245;-73
2022/11/30 02:25:03;;;;;;;91.97;83.65;;;;;;;0.49;82.88;101492.44;1655354;86;25597;-72
2022/11/30 02:28:08;;;;;;;91.92;83.37;;;;;;;0.50;82.96;101492.23;1638417;87;27358;-73
2022/11/30 02:30:39;;;;;;;90.42;82.40;;;;;;;0.50;82.91;101490.91;1638678;87;25511;-72
2022/11/30 02:33:19;;;;;;;95.83;87.33;;;;;;;0.52;82.94;101501.34;1638727;87;25690;-72
2022/11/30 02:35:49;;;;;;;90.45;82.12;;;;;;;0.50;82.95;101500.74;1638713;87;25692;-72
2022/11/30 02:38:21;;;;;;;91.80;83.42;;;;;;;0.50;82.76;101502.08;1638761;87;25487;-72
2022/11/30 02:40:48;;;;;;;87.40;79.97;;;;;;;0.47;82.72;101501.16;1637840;87;27455;-72
2022/11/30 02:43:15;;;;;;;98.77;89.90;;;;;;;0.47;82.76;101510.48;1638636;87;25512;-72
2022/11/30 02:46:26;;;;;;;89.23;81.00;;;;;;;0.46;82.84;101504.84;1642138;86;25678;-72
2022/11/30 02:49:04;;;;;;;91.27;82.90;;;;;;;0.47;82.92;101505.16;1650493;86;25622;-72
2022/11/30 02:51:33;;;;;;;90.27;81.93;;;;;;;0.48;82.99;101506.80;1650512;86;25679;-71
2022/11/30 02:54:00;;;;;;;88.95;81.02;;;;;;;0.47;82.85;101513.14;1650609;86;27429;-71
2022/11/30 02:56:27;;;;;;;89.70;81.57;;;;;;;0.45;82.84;101514.68;1650411;86;25538;-71
2022/11/30 02:58:54;;;;;;;89.10;81.30;;;;;;;0.45;82.84;101510.69;1655462;86;25664;-72
2022/11/30 03:01:21;;;;;;;86.87;78.80;;;;;;;0.43;82.72;101512.75;1662633;85;25598;-73
2022/11/30 03:03:47;;;;;;;90.97;83.33;;;;;;;0.40;82.79;101506.52;1670166;85;25495;-73
2022/11/30 03:06:13;;;;;;;93.27;84.43;;;;;;;0.42;82.93;101512.96;1670115;85;27406;-73
2022/11/30 03:08:39;;;;;;;88.80;80.87;;;;;;;0.41;82.95;101507.32;1670047;85;25654;-72
2022/11/30 03:11:05;;;;;;;92.33;84.10;;;;;;;0.41;82.92;101513.98;1670121;85;25437;-72
2022/11/30 03:13:33;;;;;;;89.93;82.13;;;;;;;0.41;83.03;101515.30;1670100;85;25592;-72
2022/11/30 03:16:12;;;;;;;89.47;81.42;;;;;;;0.43;82.94;101518.59;1670147;85;25491;-72
2022/11/30 03:18:39;;;;;;;89.83;82.25;;;;;;;0.41;82.76;101517.48;1670132;85;27345;-72
2022/11/30 03:21:11;;;;;;;94.10;85.17;;;;;;;0.41;82.86;101524.63;1669997;85;25420;-72
2022/11/30 03:23:39;;;;;;;89.83;81.95;;;;;;;0.42;82.94;101524.94;1670130;85;25613;-72
2022/11/30 03:26:08;;;;;;;90.45;81.80;;;;;;;0.44;82.94;101525.54;1670078;85;25687;-71
2022/11/30 03:28:36;;;;;;;89.15;81.30;;;;;;;0.44;82.91;101525.54;1670135;85;25504;-72
2022/11/30 03:31:02;;;;;;;92.73;84.00;;;;;;;0.44;82.89;101526.34;1670148;85;27522;-72
2022/11/30 03:33:29;;;;;;;88.22;80.57;;;;;;;0.44;82.95;101529.53;1670011;85;25597;-71
2022/11/30 03:36:05;;;;;;;89.07;81.47;;;;;;;0.45;82.93;101534.65;1670145;85;25599;-73
2022/11/30 03:38:33;;;;;;;90.80;82.63;;;;;;;0.46;82.91;101532.30;1670108;85;26242;-74
2022/11/30 03:41:17;;;;;;;90.73;82.77;;;;;;;0.46;82.96;101529.64;1670109;85;25632;-73
2022/11/30 03:43:40;;;;;;;91.32;82.40;;;;;;;0.47;82.92;101525.93;1668849;85;28065;-71
2022/11/30 03:46:06;;;;;;;93.07;84.87;;;;;;;0.48;82.96;101534.23;1670050;85;25641;-71
2022/11/30 03:48:35;;;;;;;92.72;84.42;;;;;;;0.49;83.03;101537.70;1670183;85;25557;-71
2022/11/30 03:51:03;;;;;;;92.17;84.28;;;;;;;0.49;82.98;101536.38;1686486;85;26133;-71
2022/11/30 03:53:30;;;;;;;89.17;81.32;;;;;;;0.48;82.86;101541.41;1670125;85;25673;-71
2022/11/30 03:56:00;;;;;;;96.72;87.85;;;;;;;0.49;82.96;101543.03;1670087;85;27286;-71
2022/11/30 03:58:26;;;;;;;89.83;81.82;;;;;;;0.48;82.93;101536.89;1670019;85;25490;-71
2022/11/30 04:01:16;;;;;;;91.08;82.97;;;;;;;0.48;82.88;101544.08;1670066;85;25437;-71
2022/11/30 04:03:43;;;;;;;88.00;80.35;;;;;;;0.48;82.86;101541.41;1655665;86;25614;-71
2022/11/30 04:06:12;;;;;;;90.77;82.78;;;;;;;0.48;82.94;101542.74;1665900;86;25431;-72
2022/11/30 04:08:39;;;;;;;91.55;83.20;;;;;;;0.47;82.92;101538.44;1666008;86;27342;-72
2022/11/30 04:11:07;;;;;;;96.70;87.78;;;;;;;0.45;82.90;101541.83;1665749;85;25423;-73
2022/11/30 04:13:36;;;;;;;89.10;81.72;;;;;;;0.43;82.85;101546.55;1665886;85;25675;-73
2022/11/30 04:16:03;;;;;;;90.83;83.10;;;;;;;0.40;82.81;101547.77;1665955;86;25764;-73
2022/11/30 04:18:32;;;;;;;88.87;81.25;;;;;;;0.41;82.89;101552.58;1665894;85;25441;-73
2022/11/30 04:21:00;;;;;;;88.50;80.92;;;;;;;0.39;83.01;101552.78;1665975;86;27484;-73
2022/11/30 04:23:30;;;;;;;88.50;80.83;;;;;;;0.41;83.08;101549.91;1665784;86;25739;-73
2022/11/30 04:25:57;;;;;;;88.10;80.10;;;;;;;0.40;82.96;101548.30;1665893;86;25581;-74
2022/11/30 04:28:23;;;;;;;89.73;82.13;;;;;;;0.40;83.00;101545.63;1665830;86;26319;-73
2022/11/30 04:30:51;;;;;;;88.50;80.60;;;;;;;0.41;83.17;101551.24;1665874;86;25693;-74
2022/11/30 04:33:17;;;;;;;90.33;81.97;;;;;;;0.41;83.18;101545.42;1665882;86;28052;-73
2022/11/30 04:35:48;;;;;;;91.85;83.70;;;;;;;0.42;83.18;101547.56;1665780;85;25492;-73
2022/11/30 04:38:14;;;;;;;94.47;86.12;;;;;;;0.53;83.27;101562.37;1665902;86;25586;-72
2022/11/30 04:40:42;;;;;;;93.55;85.40;;;;;;;0.45;83.16;101552.48;1665801;86;26270;-74
2022/11/30 04:43:10;;;;;;;93.50;85.47;;;;;;;0.46;83.20;101555.42;1665870;85;25435;-73
2022/11/30 04:45:37;;;;;;;89.40;81.90;;;;;;;0.43;83.11;101555.34;1665848;85;28110;-73
2022/11/30 04:48:05;;;;;;;95.12;86.22;;;;;;;0.44;83.06;101554.83;1665862;85;25413;-73
2022/11/30 04:50:32;;;;;;;91.20;83.25;;;;;;;0.43;83.08;101551.35;1665841;85;25592;-73
2022/11/30 04:52:58;;;;;;;92.75;84.83;;;;;;;0.44;83.12;101547.64;1665815;85;25610;-73
2022/11/30 04:55:24;;;;;;;97.00;87.33;;;;;;;0.44;83.13;101548.17;1665874;86;25522;-73
2022/11/30 04:57:51;;;;;;;92.37;83.60;;;;;;;0.44;83.20;101551.64;1665856;85;27325;-73
2022/11/30 05:00:19;;;;;;;95.75;87.27;;;;;;;0.47;83.20;101561.06;1665747;85;25577;-73
2022/11/30 05:02:45;;;;;;;94.62;86.12;;;;;;;0.62;83.17;101581.59;1665887;85;25575;-72
2022/11/30 05:05:12;;;;;;;91.72;83.15;;;;;;;0.62;83.17;101581.59;1665836;85;25637;-72
2022/11/30 05:07:39;;;;;;;92.78;84.35;;;;;;;0.50;83.21;101572.63;1665872;86;25562;-72
2022/11/30 05:10:08;;;;;;;93.33;85.20;;;;;;;0.50;83.21;101572.63;1665832;86;27423;-74
2022/11/30 05:12:34;;;;;;;93.82;85.53;;;;;;;0.51;83.26;101566.25;1665754;86;25638;-74
2022/11/30 05:15:01;;;;;;;90.65;82.85;;;;;;;0.51;83.28;101574.25;1650046;86;25521;-74
2022/11/30 05:17:27;;;;;;;94.35;86.08;;;;;;;0.51;83.32;101570.25;1665795;85;25791;-73
2022/11/30 05:19:53;;;;;;;91.47;83.22;;;;;;;0.50;83.28;101572.11;1665816;86;25577;-73
2022/11/30 05:22:19;;;;;;;92.05;83.95;;;;;;;0.51;83.26;101571.58;1665869;85;27384;-72
2022/11/30 05:24:45;;;;;;;91.45;83.17;;;;;;;0.50;83.20;101576.63;1665752;85;25539;-73
2022/11/30 05:27:12;;;;;;;92.27;84.13;;;;;;;0.55;83.11;101579.47;1665848;86;25601;-72
2022/11/30 05:29:38;;;;;;;91.65;83.58;;;;;;;0.49;83.31;101573.13;1665802;85;25638;-72
2022/11/30 05:32:04;;;;;;;91.97;84.03;;;;;;;0.50;83.30;101568.63;1665841;85;25417;-71
2022/11/30 05:34:30;;;;;;;94.55;85.85;;;;;;;0.52;83.37;101570.56;1665849;85;27398;-70
2022/11/30 05:36:57;;;;;;;93.70;85.25;;;;;;;0.53;83.40;101581.02;1665732;86;25583;-70
2022/11/30 05:39:23;;;;;;;91.28;83.17;;;;;;;0.52;83.35;101586.02;1665782;85;25629;-71
2022/11/30 05:41:49;;;;;;;90.85;82.35;;;;;;;0.52;83.39;101587.34;1665776;86;26271;-71
2022/11/30 05:44:16;;;;;;;92.80;84.52;;;;;;;0.47;83.25;101583.17;1665853;85;25492;-72
2022/11/30 05:46:42;;;;;;;93.05;84.50;;;;;;;0.48;83.28;101591.47;1663862;86;27344;-72
2022/11/30 05:49:08;;;;;;;88.95;81.08;;;;;;;0.46;83.35;101595.36;1659717;85;25411;-72
2022/11/30 05:51:34;;;;;;;95.00;85.92;;;;;;;0.47;83.47;101595.15;1679422;85;25341;-72
2022/11/30 05:54:00;;;;;;;91.63;83.27;;;;;;;0.48;83.47;101603.45;1679444;85;25675;-72
2022/11/30 05:56:32;;;;;;;89.55;81.67;;;;;;;0.48;83.54;101598.12;1679501;85;25636;-72
2022/11/30 05:58:59;;;;;;;91.02;82.85;;;;;;;0.49;83.65;101596.27;1679487;85;27463;-72
2022/11/30 06:01:28;;;;;;;89.93;81.87;;;;;;;0.49;83.64;101593.09;1679336;85;25641;-72
2022/11/30 06:03:55;;;;;;;64.45;58.33;;;;;;;0.47;83.60;101595.15;1679807;85;25205;-72
2022/11/30 06:06:22;;;;;;;89.77;81.47;;;;;;;0.48;83.53;101596.80;1679751;85;25723;-71
2022/11/30 06:08:49;;;;;;;90.77;82.50;;;;;;;0.47;83.60;101597.81;1679581;85;25431;-72
2022/11/30 06:11:16;;;;;;;93.47;85.12;;;;;;;0.48;83.59;101591.47;1679413;85;27326;-71
2022/11/30 06:13:43;;;;;;;90.27;82.37;;;;;;;0.47;83.61;101602.33;1679356;85;25412;-72
2022/11/30 06:16:09;;;;;;;95.75;86.97;;;;;;;0.47;83.58;101598.34;1679462;85;25460;-73
2022/11/30 06:18:37;;;;;;;91.97;83.85;;;;;;;0.48;83.53;101599.98;1652146;85;25506;-72
2022/11/30 06:21:08;;;;;;;93.03;84.32;;;;;;;0.50;83.54;101604.58;1679448;85;25596;-70
2022/11/30 06:23:36;;;;;;;93.07;84.62;;;;;;;0.50;83.58;101602.73;1679298;85;27988;-73
2022/11/30 06:26:09;;;;;;;92.27;83.97;;;;;;;0.50;83.58;101604.58;1652172;85;25652;-71
2022/11/30 06:28:38;;;;;;;89.50;81.60;;;;;;;0.49;83.63;101604.27;1679479;85;25490;-71
2022/11/30 06:31:06;;;;;;;95.35;86.87;;;;;;;0.49;83.71;101605.07;1679400;85;25638;-71
2022/11/30 06:33:34;;;;;;;95.97;87.25;;;;;;;0.50;83.71;101600.06;1679440;85;25443;-72
2022/11/30 06:36:02;;;;;;;95.97;87.02;;;;;;;0.51;83.68;101607.53;1679409;85;27489;-71
2022/11/30 06:38:28;;;;;;;90.22;81.95;;;;;;;0.51;83.78;101600.88;1651992;85;25475;-71
2022/11/30 06:41:04;;;;;;;90.77;82.37;;;;;;;0.51;83.68;101601.70;1679414;85;25634;-71
2022/11/30 06:43:34;;;;;;;91.67;83.58;;;;;;;0.51;83.63;101616.35;1679400;85;25634;-71
2022/11/30 06:46:02;;;;;;;93.50;84.90;;;;;;;0.51;83.68;101617.69;1679175;84;25418;-72
2022/11/30 06:48:29;;;;;;;89.75;81.55;;;;;;;0.61;83.68;101637.20;1668929;85;27401;-72
2022/11/30 06:50:55;;;;;;;93.87;85.47;;;;;;;0.52;83.65;101629.95;1667918;85;25864;-72
2022/11/30 06:53:21;;;;;;;92.90;84.20;;;;;;;0.52;83.71;101623.30;1610299;87;25478;-72
2022/11/30 06:55:48;;;;;;;94.77;86.35;;;;;;;0.52;83.71;101627.81;1667903;86;25672;-71
2022/11/30 06:58:14;;;;;;;67.70;60.85;;;;;;;0.50;83.45;101628.02;1667993;85;25472;-73
2022/11/30 07:00:41;;;;;;;91.02;83.25;;;;;;;0.50;83.40;101640.52;1634454;87;27418;-72
2022/11/30 07:03:10;;;;;;;89.35;81.57;;;;;;;0.45;83.30;101634.48;1667868;86;25477;-70
2022/11/30 07:05:44;;;;;;;61.48;56.15;;;;;;;0.44;83.40;101635.50;1634581;87;25583;-70
2022/11/30 07:08:13;;;;;;;88.90;81.08;;;;;;;0.38;83.32;101631.02;1667929;85;25617;-68
2022/11/30 07:10:41;;;;;;;68.83;62.62;;;;;;;0.39;83.55;101635.30;1634632;87;25696;-68
2022/11/30 07:13:17;;;;;;;66.07;60.50;;;;;;;0.38;83.52;101640.34;1668196;85;27412;-68
2022/11/30 07:15:45;;;;;;;90.62;82.55;;;;;;;0.38;83.67;101635.02;1667861;86;25646;-70
2022/11/30 07:18:12;;;;;;;92.75;84.00;;;;;;;0.40;83.90;101633.48;1667978;85;25495;-70
2022/11/30 07:20:39;;;;;;;91.53;83.42;;;;;;;0.49;83.91;101650.33;1667759;86;26160;-70
2022/11/30 07:26:05;;;;;;;91.63;83.58;;;;;;;0.42;83.84;101636.75;1667824;86;27346;-69
2022/11/30 07:28:36;;;;;;;90.38;82.12;;;;;;;0.40;83.80;101642.80;1634430;87;25637;-69
2022/11/30 07:31:28;;;;;;;88.03;80.25;;;;;;;0.40;84.00;101638.28;1667398;85;25412;-73
2022/11/30 07:33:57;;;;;;;88.75;80.87;;;;;;;0.42;83.99;101637.55;1634443;87;25735;-70
2022/11/30 07:36:26;;;;;;;71.15;64.95;;;;;;;0.42;84.08;101640.73;1668077;85;25416;-70
2022/11/30 07:38:52;;;;;;;64.53;58.73;;;;;;;0.42;84.13;101634.89;1634608;87;27464;-68
2022/11/30 07:41:19;;;;;;;89.20;80.57;;;;;;;0.44;84.17;101638.16;1667831;85;25505;-69
2022/11/30 07:43:46;;;;;;;88.90;81.17;;;;;;;0.46;84.25;101641.45;1634415;87;25600;-68
2022/11/30 07:46:14;;;;;;;92.20;84.17;;;;;;;0.47;84.21;101641.74;1667895;86;25638;-68
2022/11/30 07:48:43;;;;;;;88.00;80.07;;;;;;;0.47;84.18;101648.92;1680672;85;25673;-68
2022/11/30 07:51:13;;;;;;;64.12;58.42;;;;;;;0.49;84.21;101650.85;1671440;85;27375;-69
2022/11/30 07:53:40;;;;;;;88.80;80.57;;;;;;;0.50;84.28;101651.98;1681785;85;25580;-68
2022/11/30 07:56:16;;;;;;;94.15;85.42;;;;;;;0.53;84.30;101652.09;1699492;84;25661;-68
2022/11/30 07:58:43;;;;;;;89.03;81.23;;;;;;;0.53;84.15;101651.56;1699505;84;25684;-69
2022/11/30 08:01:14;;;;;;;91.07;83.10;;;;;;;0.52;84.13;101643.27;1699510;84;25738;-69
2022/11/30 08:03:41;;;;;;;89.72;81.65;;;;;;;0.51;84.09;101647.46;1699534;84;27350;-65
2022/11/30 08:06:12;;;;;;;89.52;81.63;;;;;;;0.50;84.16;101647.17;1699419;83;25683;-71
2022/11/30 08:08:43;;;;;;;91.57;83.43;;;;;;;0.52;84.40;101646.45;1699516;84;25479;-72
2022/11/30 08:11:13;;;;;;;96.00;87.33;;;;;;;0.53;84.50;101642.77;1698863;84;26150;-73
2022/11/30 08:13:40;;;;;;;93.55;85.28;;;;;;;0.57;84.53;101649.83;1699578;84;25515;-73
2022/11/30 08:16:10;;;;;;;97.90;88.27;;;;;;;0.56;84.41;101650.31;1699514;84;27405;-73
2022/11/30 08:18:36;;;;;;;95.87;86.78;;;;;;;0.57;84.40;101647.97;1699480;84;25615;-73
2022/11/30 08:21:05;;;;;;;91.47;83.47;;;;;;;0.57;84.33;101645.31;1699510;84;25624;-74
2022/11/30 08:23:40;;;;;;;65.17;59.75;;;;;;;0.52;84.15;101645.92;1699588;83;25705;-75
2022/11/30 08:26:14;;;;;;;84.85;77.85;;;;;;;0.52;84.22;101643.78;1699578;84;25659;-74
2022/11/30 08:28:42;;;;;;;90.00;82.70;;;;;;;0.52;84.21;101645.92;1699587;84;27332;-73
2022/11/30 08:31:14;;;;;;;89.75;82.25;;;;;;;0.53;84.39;101643.58;1699413;84;25592;-72
2022/11/30 08:33:41;;;;;;;88.62;81.25;;;;;;;0.55;84.37;101653.50;1698638;84;25525;-72
2022/11/30 08:36:18;;;;;;;90.72;82.92;;;;;;;0.54;84.41;101644.39;1699599;84;25637;-71
2022/11/30 08:38:45;;;;;;;88.80;81.45;;;;;;;0.57;84.55;101646.64;1699619;84;25418;-72
2022/11/30 08:41:17;;;;;;;85.92;78.83;;;;;;;0.59;84.58;101652.57;1699585;84;27338;-72
2022/11/30 08:43:44;;;;;;;87.85;80.62;;;;;;;0.56;84.31;101650.31;1699541;84;25419;-72
2022/11/30 08:46:14;;;;;;;85.83;78.40;;;;;;;0.57;84.23;101647.97;1699534;84;25643;-73
2022/11/30 08:48:41;;;;;;;84.87;78.15;;;;;;;0.56;84.27;101651.65;1677807;84;26164;-72
2022/11/30 08:51:11;;;;;;;84.67;78.07;;;;;;;0.55;84.39;101656.69;1668181;86;25590;-72
2022/11/30 08:53:39;;;;;;;87.08;80.10;;;;;;;0.57;84.38;101653.82;1634570;87;27402;-71
2022/11/30 08:56:12;;;;;;;85.97;78.57;;;;;;;0.54;84.45;101651.05;1667973;85;25658;-73
2022/11/30 08:58:40;;;;;;;87.92;80.72;;;;;;;0.57;84.68;101654.63;1634010;87;25608;-73
2022/11/30 09:01:17;;;;;;;87.92;80.62;;;;;;;0.65;84.64;101668.25;1667960;86;25637;-71
2022/11/30 09:03:46;;;;;;;87.97;80.70;;;;;;;0.65;84.64;101668.25;1634698;87;25688;-71
2022/11/30 09:06:16;;;;;;;60.45;55.58;;;;;;;0.57;84.59;101650.64;1668165;85;27345;-72
2022/11/30 09:08:46;;;;;;;86.63;79.53;;;;;;;0.55;84.63;101640.72;1634111;87;25489;-72
2022/11/30 09:11:19;;;;;;;88.95;81.70;;;;;;;0.59;84.72;101650.43;1668252;86;25464;-73
2022/11/30 09:13:48;;;;;;;87.78;80.30;;;;;;;0.62;84.86;101652.68;1665992;86;26214;-72
2022/11/30 09:16:18;;;;;;;85.50;78.50;;;;;;;0.62;84.73;101656.67;1634738;87;25497;-72
2022/11/30 09:18:48;;;;;;;85.62;78.75;;;;;;;0.61;84.67;101655.84;1668062;86;27377;-72
2022/11/30 09:21:18;;;;;;;;;;;;;;;0.59;84.72;101655.23;1636867;87;25586;-72
2022/11/30 09:23:45;;;;;;;87.42;80.28;;;;;;;0.63;84.81;101656.96;1667929;85;25593;-71
2022/11/30 09:26:16;;;;;;;87.65;80.75;;;;;;;0.62;84.92;101654.82;1634537;87;26161;-71
2022/11/30 09:28:46;;;;;;;89.97;82.50;;;;;;;0.63;84.91;101652.47;1668421;85;25449;-73
2022/11/30 09:31:18;;;;;;;86.97;79.70;;;;;;;0.65;85.00;101653.59;1634560;87;28045;-71
2022/11/30 09:33:46;;;;;;;91.40;83.95;;;;;;;0.66;84.91;101656.55;1667911;85;25612;-73
2022/11/30 09:36:17;;;;;;;87.50;80.25;;;;;;;0.64;84.93;101650.09;1634523;87;25671;-66
2022/11/30 09:38:46;;;;;;;89.20;81.80;;;;;;;0.66;84.99;101653.88;1667925;85;25809;-64
2022/11/30 09:41:45;;;;;;;86.75;79.55;;;;;;;0.69;85.09;101654.80;1634513;87;25680;-63
2022/11/30 09:44:40;;;;;;;62.25;57.15;;;;;;;0.73;85.26;101660.84;1667874;85;27970;-66
2022/11/30 09:47:26;;;;;;;86.08;79.32;;;;;;;0.74;85.17;101650.47;1634421;87;25759;-69
2022/11/30 09:49:53;;;;;;;84.97;77.37;;;;;;;0.77;85.08;101646.59;1668030;86;25423;-70
2022/11/30 09:52:34;;;;;;;82.80;75.97;;;;;;;0.79;85.12;101648.52;1667975;85;26167;-70
2022/11/30 09:55:05;;;;;;;86.53;78.63;;;;;;;0.77;84.91;101648.41;1667276;85;25412;-71
2022/11/30 09:57:56;;;;;;;86.90;79.58;;;;;;;0.79;85.09;101651.19;1667948;85;27869;-71
2022/11/30 10:00:25;;;;;;;84.73;77.80;;;;;;;0.81;85.14;101648.31;1667886;86;25658;-71
2022/11/30 10:02:56;;;;;;;83.60;77.00;;;;;;;0.84;85.28;101648.70;1667992;86;25502;-76
2022/11/30 10:05:49;;;;;;;84.93;77.90;;;;;;;0.84;85.33;101642.05;1668015;85;25779;-76
2022/11/30 10:08:30;;;;;;;86.73;79.40;;;;;;;0.85;85.12;101646.36;1668099;85;25493;-78
2022/11/30 10:11:24;;;;;;;89.90;82.57;;;;;;;0.88;85.11;101638.45;1627973;87;28038;-77
2022/11/30 10:14:05;;;;;;;88.82;81.20;;;;;;;0.93;85.29;101640.77;1667931;86;25419;-75
2022/11/30 10:17:01;;;;;;;86.37;79.07;;;;;;;0.98;85.41;101642.00;1634631;87;25480;-75
2022/11/30 10:24:12;;;;;;;87.90;80.70;;;;;;;1.02;85.17;101640.53;1668298;86;25403;-73
2022/11/30 10:26:47;;;;;;;88.22;81.15;;;;;;;1.05;85.05;101636.92;1634663;87;27434;-74
2022/11/30 10:29:31;;;;;;;86.10;78.80;;;;;;;1.05;84.95;101636.92;1666536;85;26160;-75
2022/11/30 10:32:02;;;;;;;86.13;79.07;;;;;;;1.09;85.10;101641.31;1668438;86;25393;-71
2022/11/30 10:34:34;;;;;;;84.83;78.27;;;;;;;1.10;85.01;101635.77;1632727;87;26289;-69
2022/11/30 10:37:30;;;;;;;87.85;80.57;;;;;;;1.12;84.80;101640.89;1667712;85;25424;-68
2022/11/30 10:40:01;;;;;;;85.83;78.87;;;;;;;1.13;84.86;101635.88;1668034;85;27326;-67
2022/11/30 10:42:33;;;;;;;87.75;80.75;;;;;;;1.15;84.96;101635.67;1667812;85;25562;-67
2022/11/30 10:45:08;;;;;;;88.00;80.83;;;;;;;1.17;85.05;101645.59;1667979;85;25432;-69
2022/11/30 10:47:42;;;;;;;88.90;80.80;;;;;;;1.20;84.95;101643.84;1667611;85;25634;-68
2022/11/30 10:50:13;;;;;;;84.17;77.27;;;;;;;1.21;84.68;101646.80;1682751;85;25468;-69
2022/11/30 10:52:53;;;;;;;89.13;82.20;;;;;;;1.18;84.63;101641.91;1671349;85;27386;-66
2022/11/30 10:55:27;;;;;;;85.65;78.83;;;;;;;1.19;84.60;101639.03;1681798;85;25694;-68
2022/11/30 10:58:01;;;;;;;85.80;78.92;;;;;;;1.19;84.44;101641.70;1699435;84;25677;-67
2022/11/30 11:00:27;;;;;;;84.20;77.50;;;;;;;1.18;84.72;101640.05;1698400;84;25642;-66
2022/11/30 11:02:54;;;;;;;86.87;79.97;;;;;;;1.22;84.73;101642.59;1699524;83;25665;-67
2022/11/30 11:05:30;;;;;;;90.87;83.27;;;;;;;1.24;84.66;101646.38;1699488;84;27297;-68
2022/11/30 11:08:20;;;;;;;88.27;80.63;;;;;;;1.23;84.61;101644.23;1699465;84;25651;-69
2022/11/30 11:10:53;;;;;;;90.20;82.37;;;;;;;1.24;84.67;101642.38;1698804;84;25581;-69
2022/11/30 11:13:44;;;;;;;90.30;82.88;;;;;;;1.23;84.67;101636.23;1699555;84;25731;-69
2022/11/30 11:16:12;;;;;;;87.05;79.95;;;;;;;1.35;84.57;101659.03;1699510;84;25412;-67
2022/11/30 11:19:17;;;;;;;89.52;82.22;;;;;;;1.16;84.62;101627.95;1699497;84;27787;-67
2022/11/30 11:21:47;;;;;;;85.35;78.17;;;;;;;1.16;84.68;101631.46;1674803;85;25584;-73
2022/11/30 11:24:18;;;;;;;86.28;78.92;;;;;;;1.17;84.98;101629.08;1675026;85;25623;-70
2022/11/30 11:26:53;;;;;;;86.08;79.00;;;;;;;1.17;85.10;101629.60;1674753;85;26161;-70
2022/11/30 11:29:30;;;;;;;87.70;80.50;;;;;;;1.20;85.10;101637.98;1675014;85;25588;-71
2022/11/30 11:32:20;;;;;;;89.32;82.08;;;;;;;1.21;85.25;101631.64;1674999;85;27593;-73
2022/11/30 11:34:47;;;;;;;88.00;80.62;;;;;;;1.22;85.28;101629.78;1674777;85;25876;-72
2022/11/30 11:37:27;;;;;;;85.83;78.70;;;;;;;1.24;85.50;101633.05;1675062;85;25692;-77
2022/11/30 11:40:11;;;;;;;84.75;77.97;;;;;;;1.23;85.48;101630.91;1675182;85;25701;-72
2022/11/30 11:42:53;;;;;;;90.97;83.27;;;;;;;1.26;85.48;101624.31;1675008;85;25501;-71